KMTO/MTO METAR and TAF weather

Enter ICAO airport designator
Station Type Date Time Source
KMTO METAR 2022/06/30 12:53 UTC NOAA

KMTO 301253Z AUTO 18006KT 10SM CLR 22/14 A3016 RMK AO2 SLP206 T02220144


Station Type Date Time Source
KMTO Decoded METAR 2022/06/30 12:53 UTC NOAA

MATTOON/CHARLESTON COLES CO, IL, United States (KMTO) 39-28N 88-16W 214M
Jun 30, 2022 - 08:53 AM EDT / 2022.06.30 1253 UTC
Wind: from the S (180 degrees) at 7 MPH (6 KT):0
Visibility: 10 mile(s):0
Sky conditions: clear
Temperature: 72.0 F (22.2 C)
Dew Point: 57.9 F (14.4 C)
Relative Humidity: 61%
Pressure (altimeter): 30.16 in. Hg (1021 hPa)
ob: KMTO 301253Z AUTO 18006KT 10SM CLR 22/14 A3016 RMK AO2 SLP206 T02220144
cycle: 13

Station Type Date Time Source
KMTO TAF UTC NOAA

Error!

Example: see airport list